createdAt,value
2023-05-09T00:01:59.393Z,7.60
2023-05-09T00:05:02.980Z,10.87
2023-05-09T00:08:05.683Z,8.10
2023-05-09T00:11:08.277Z,9.88
2023-05-09T00:14:12.620Z,8.40
2023-05-09T00:17:15.856Z,8.33
2023-05-09T00:20:18.657Z,8.27
2023-05-09T00:23:24.232Z,8.25
2023-05-09T00:26:29.977Z,9.50
2023-05-09T00:29:35.438Z,7.60
2023-05-09T00:32:38.109Z,8.37
2023-05-09T00:35:40.699Z,8.10
2023-05-09T00:38:43.466Z,11.20
2023-05-09T00:41:46.142Z,8.07
2023-05-09T00:44:51.392Z,9.35
2023-05-09T00:47:54.286Z,9.23
2023-05-09T00:50:57.147Z,8.60
2023-05-09T00:54:00.044Z,9.05
2023-05-09T00:57:03.249Z,8.93
2023-05-09T01:00:06.793Z,9.25
2023-05-09T01:03:09.822Z,9.63
2023-05-09T01:06:43.666Z,8.63
2023-05-09T01:10:05.151Z,10.00
2023-05-09T01:13:26.679Z,8.25
2023-05-09T01:16:43.806Z,9.25
2023-05-09T01:19:54.792Z,9.53
2023-05-09T01:23:15.549Z,10.10
2023-05-09T01:26:52.412Z,11.50
2023-05-09T01:29:59.699Z,12.73
2023-05-09T01:33:05.643Z,14.20
2023-05-09T01:36:12.828Z,13.97
2023-05-09T01:39:16.471Z,11.97
2023-05-09T01:42:20.137Z,12.35
2023-05-09T01:45:24.601Z,11.57
2023-05-09T01:48:30.999Z,10.60
2023-05-09T01:51:34.617Z,11.53
2023-05-09T01:54:39.196Z,9.60
2023-05-09T01:57:43.469Z,9.73
2023-05-09T02:00:47.538Z,13.70
2023-05-09T02:03:52.733Z,13.18
2023-05-09T02:06:55.943Z,11.40
2023-05-09T02:10:00.724Z,13.67
2023-05-09T02:13:04.067Z,12.48
2023-05-09T02:16:07.893Z,11.65
2023-05-09T02:19:11.988Z,10.45
2023-05-09T02:22:15.096Z,13.00
2023-05-09T02:25:18.764Z,11.27
2023-05-09T02:28:23.225Z,11.55
2023-05-09T02:31:28.635Z,11.70
2023-05-09T02:34:31.586Z,10.35
2023-05-09T02:37:35.624Z,9.90
2023-05-09T02:40:44.920Z,14.17
2023-05-09T02:43:47.545Z,13.60
2023-05-09T02:46:50.811Z,11.30
2023-05-09T02:49:55.355Z,16.40
2023-05-09T02:52:58.065Z,10.20
2023-05-09T02:56:00.714Z,10.47
2023-05-09T02:59:03.341Z,11.13
2023-05-09T03:02:06.600Z,11.00
2023-05-09T03:05:09.699Z,10.38
2023-05-09T03:08:12.904Z,12.80
2023-05-09T03:11:15.685Z,13.47
2023-05-09T03:14:23.082Z,11.45
2023-05-09T03:17:25.778Z,13.65
2023-05-09T03:20:28.382Z,12.88
2023-05-09T03:23:31.105Z,12.13
2023-05-09T03:26:36.906Z,11.67
2023-05-09T03:29:39.513Z,10.63
2023-05-09T03:32:44.512Z,17.05
2023-05-09T03:35:47.162Z,12.13
2023-05-09T03:38:49.884Z,12.63
2023-05-09T03:41:54.754Z,12.17
2023-05-09T03:44:58.165Z,13.38
2023-05-09T03:48:00.824Z,14.98
2023-05-09T03:51:04.104Z,14.13
2023-05-09T03:54:10.251Z,13.67
2023-05-09T03:57:12.941Z,16.40
2023-05-09T04:00:16.078Z,11.55
2023-05-09T04:03:27.189Z,10.05
2023-05-09T04:06:34.289Z,10.68
2023-05-09T04:09:37.834Z,13.47
2023-05-09T04:12:40.856Z,10.03
2023-05-09T04:15:44.068Z,12.00
2023-05-09T04:18:47.203Z,14.82
2023-05-09T04:21:50.982Z,11.18
2023-05-09T04:24:56.429Z,14.87
2023-05-09T04:27:59.238Z,12.60
2023-05-09T04:31:02.056Z,10.60
2023-05-09T04:34:06.630Z,13.55
2023-05-09T04:37:11.243Z,14.93
2023-05-09T04:40:14.816Z,11.47
2023-05-09T04:43:28.242Z,10.60
2023-05-09T04:46:39.685Z,9.93
2023-05-09T04:49:43.091Z,9.52
2023-05-09T04:52:45.715Z,11.85
2023-05-09T04:55:48.616Z,13.90
2023-05-09T04:58:51.625Z,12.53
2023-05-09T05:01:54.958Z,11.77
2023-05-09T05:05:10.190Z,10.60
2023-05-09T05:08:18.170Z,12.15
2023-05-09T05:11:21.724Z,10.83
2023-05-09T05:14:24.974Z,10.90
2023-05-09T05:17:29.703Z,17.05
2023-05-09T05:20:58.473Z,10.80
2023-05-09T05:24:05.253Z,14.77
2023-05-09T05:27:08.701Z,13.20
2023-05-09T05:30:12.608Z,9.53
2023-05-09T05:33:16.272Z,9.50
2023-05-09T05:36:28.615Z,9.18
2023-05-09T05:39:41.297Z,10.35
2023-05-09T05:46:29.512Z,8.03
2023-05-09T05:49:32.869Z,8.45
2023-05-09T05:52:38.996Z,8.25
2023-05-09T05:55:42.486Z,8.38
2023-05-09T05:58:46.028Z,9.53
2023-05-09T06:01:49.477Z,7.93
2023-05-09T06:04:53.969Z,7.63
2023-05-09T06:08:00.124Z,9.38
2023-05-09T06:11:03.114Z,8.15
2023-05-09T06:14:07.229Z,7.20
2023-05-09T06:17:10.125Z,10.53
2023-05-09T06:20:13.093Z,9.13
2023-05-09T06:23:15.843Z,10.23
2023-05-09T06:26:20.073Z,8.88
2023-05-09T06:29:35.769Z,8.10
2023-05-09T06:32:46.262Z,8.60
2023-05-09T06:35:48.954Z,9.10
2023-05-09T06:39:00.185Z,8.32
2023-05-09T06:42:03.394Z,6.88
2023-05-09T06:45:08.952Z,7.23
2023-05-09T06:48:15.521Z,7.40
2023-05-09T06:51:18.698Z,6.93
2023-05-09T06:54:22.126Z,6.88
2023-05-09T06:57:24.966Z,10.25
2023-05-09T07:00:27.650Z,10.83
2023-05-09T07:03:30.518Z,9.57
2023-05-09T07:06:33.381Z,8.30
2023-05-09T07:09:35.964Z,6.32
2023-05-09T07:12:38.840Z,7.13
2023-05-09T07:15:42.964Z,8.00
2023-05-09T07:18:45.901Z,7.23
2023-05-09T07:21:58.466Z,8.27
2023-05-09T07:25:01.221Z,8.23
2023-05-09T07:28:04.016Z,6.88
2023-05-09T07:31:06.653Z,7.17
2023-05-09T07:34:09.246Z,7.23
2023-05-09T07:37:13.694Z,6.40
2023-05-09T07:40:18.346Z,6.47
2023-05-09T07:43:21.187Z,7.88
2023-05-09T07:46:23.866Z,6.20
2023-05-09T07:49:26.603Z,9.20
2023-05-09T07:52:29.218Z,7.90
2023-05-09T07:55:31.948Z,6.65
2023-05-09T07:58:34.596Z,6.43
2023-05-09T08:01:37.182Z,7.00
2023-05-09T08:04:41.865Z,7.07
2023-05-09T08:07:44.810Z,7.00
2023-05-09T08:10:50.005Z,6.38
2023-05-09T08:13:52.753Z,5.97
2023-05-09T08:16:55.366Z,6.47
2023-05-09T08:19:58.401Z,12.53
2023-05-09T08:23:00.972Z,7.18
2023-05-09T08:26:04.063Z,6.13
2023-05-09T08:29:06.685Z,7.40
2023-05-09T08:32:09.532Z,7.93
2023-05-09T08:35:12.539Z,6.63
2023-05-09T08:38:15.391Z,7.15
2023-05-09T08:41:18.240Z,8.35
2023-05-09T08:44:23.581Z,6.20
2023-05-09T08:47:26.659Z,7.23
2023-05-09T08:50:29.448Z,6.50
2023-05-09T08:53:33.211Z,7.60
2023-05-09T08:57:01.594Z,7.05
2023-05-09T09:00:20.465Z,7.63
2023-05-09T09:03:36.280Z,7.07
2023-05-09T09:06:54.220Z,6.13
2023-05-09T09:09:59.996Z,7.32
2023-05-09T09:13:18.705Z,7.07
2023-05-09T09:16:40.868Z,5.35
2023-05-09T09:19:58.232Z,6.87
2023-05-09T09:23:14.995Z,6.03
2023-05-09T09:26:19.492Z,11.43
2023-05-09T09:29:30.546Z,8.68
2023-05-09T09:32:34.574Z,5.70
2023-05-09T09:35:41.236Z,6.17
2023-05-09T09:38:45.224Z,5.80
2023-05-09T09:41:48.619Z,6.20
2023-05-09T09:45:02.561Z,4.47
2023-05-09T09:48:07.142Z,4.55
2023-05-09T09:51:12.962Z,4.27
2023-05-09T09:54:15.584Z,6.83
2023-05-09T09:57:37.220Z,7.32
2023-05-09T10:00:39.876Z,3.97
2023-05-09T10:03:46.701Z,4.53
2023-05-09T10:06:58.636Z,4.33
2023-05-09T10:10:06.431Z,5.00
2023-05-09T10:13:12.173Z,4.90
2023-05-09T10:16:14.977Z,3.10
2023-05-09T10:19:22.030Z,5.65
2023-05-09T10:22:25.021Z,2.93
2023-05-09T10:25:31.904Z,5.10
2023-05-09T10:28:36.291Z,3.72
2023-05-09T10:31:41.256Z,3.88
2023-05-09T10:34:51.554Z,6.63
2023-05-09T10:37:58.026Z,4.10
2023-05-09T10:41:01.087Z,3.10
2023-05-09T10:44:04.161Z,5.07
2023-05-09T10:47:09.416Z,3.63
2023-05-09T10:50:13.361Z,5.80
2023-05-09T10:53:17.966Z,11.33
2023-05-09T10:56:33.146Z,5.03
2023-05-09T10:59:38.704Z,5.38
2023-05-09T11:02:41.636Z,4.50
2023-05-09T11:05:44.324Z,7.70
2023-05-09T11:08:47.832Z,4.97
2023-05-09T11:11:55.114Z,6.23
2023-05-09T11:15:04.581Z,5.00
2023-05-09T11:18:08.704Z,4.68
2023-05-09T11:21:11.886Z,3.45
2023-05-09T11:24:17.971Z,7.87
2023-05-09T11:27:31.214Z,6.97
2023-05-09T11:30:41.984Z,12.20
2023-05-09T11:33:47.196Z,4.80
2023-05-09T11:36:50.118Z,4.18
2023-05-09T11:40:05.925Z,3.63
2023-05-09T11:43:20.349Z,4.80
2023-05-09T11:46:31.829Z,6.32
2023-05-09T11:49:34.802Z,5.35
2023-05-09T11:52:39.127Z,4.10
2023-05-09T11:55:42.128Z,5.17
2023-05-09T11:58:46.951Z,5.00
2023-05-09T12:01:55.010Z,5.00
2023-05-09T12:05:06.982Z,3.90
2023-05-09T12:08:09.945Z,3.95
2023-05-09T12:11:13.990Z,14.27
2023-05-09T12:14:35.491Z,7.70
2023-05-09T12:17:38.261Z,5.93
2023-05-09T12:20:51.205Z,4.78
2023-05-09T12:23:56.894Z,7.05
2023-05-09T12:27:04.018Z,4.00
2023-05-09T12:30:12.127Z,5.03
2023-05-09T12:33:16.076Z,4.10
2023-05-09T12:36:18.940Z,7.75
2023-05-09T12:39:23.180Z,3.95
2023-05-09T12:42:34.216Z,5.87
2023-05-09T12:45:39.417Z,7.73
2023-05-09T12:48:46.991Z,5.30
2023-05-09T12:51:51.185Z,2.92
2023-05-09T12:54:54.587Z,4.80
2023-05-09T12:58:02.532Z,4.80
2023-05-09T13:01:06.168Z,5.53
2023-05-09T13:04:10.510Z,4.93
2023-05-09T13:07:13.858Z,4.60
2023-05-09T13:10:19.601Z,4.50
2023-05-09T13:13:26.586Z,4.53
2023-05-09T13:16:29.443Z,4.40
2023-05-09T13:19:39.442Z,3.78
2023-05-09T13:22:42.269Z,4.10
2023-05-09T13:25:45.159Z,4.60
2023-05-09T13:28:47.945Z,3.30
2023-05-09T13:31:50.662Z,4.97
2023-05-09T13:34:53.294Z,3.85
2023-05-09T13:37:58.530Z,6.18
2023-05-09T13:41:01.723Z,6.25
2023-05-09T13:44:06.605Z,5.37
2023-05-09T13:47:11.215Z,6.73
2023-05-09T13:50:14.197Z,6.05
2023-05-09T13:53:17.405Z,6.15
2023-05-09T13:56:20.098Z,6.15
2023-05-09T13:59:22.661Z,6.47
2023-05-09T14:02:25.264Z,5.60
2023-05-09T14:05:27.829Z,4.07
2023-05-09T14:08:30.512Z,4.68
2023-05-09T14:11:33.272Z,4.90
2023-05-09T14:14:35.876Z,6.07
2023-05-09T14:17:38.864Z,4.70
2023-05-09T14:20:42.396Z,6.63
2023-05-09T14:23:44.933Z,7.30
2023-05-09T14:26:47.877Z,6.57
2023-05-09T14:29:50.634Z,5.37
2023-05-09T14:32:53.408Z,8.93
2023-05-09T14:36:01.354Z,4.07
2023-05-09T14:39:04.195Z,5.30
2023-05-09T14:42:08.502Z,4.40
2023-05-09T14:45:13.103Z,5.17
2023-05-09T14:48:16.301Z,4.60
2023-05-09T14:51:19.067Z,5.50
2023-05-09T14:54:21.630Z,11.95
2023-05-09T14:57:24.287Z,8.35
2023-05-09T15:00:28.272Z,4.83
2023-05-09T15:03:31.381Z,4.97
2023-05-09T15:06:35.038Z,5.28
2023-05-09T15:09:38.374Z,6.22
2023-05-09T15:12:41.044Z,9.02
2023-05-09T15:15:43.880Z,5.13
2023-05-09T15:18:46.534Z,11.27
2023-05-09T15:21:49.145Z,5.05
2023-05-09T15:24:51.891Z,11.93
2023-05-09T15:27:54.561Z,5.15
2023-05-09T15:30:58.169Z,8.70
2023-05-09T15:34:01.533Z,6.87
2023-05-09T15:37:04.098Z,5.45
2023-05-09T15:40:10.042Z,6.82
2023-05-09T15:43:13.160Z,6.75
2023-05-09T15:46:15.859Z,6.43
2023-05-09T15:49:18.780Z,9.03
2023-05-09T15:52:21.582Z,6.63
2023-05-09T15:55:24.545Z,6.60
2023-05-09T15:58:27.934Z,6.05
2023-05-09T16:01:30.604Z,7.30
2023-05-09T16:04:33.710Z,6.07
2023-05-09T16:07:36.484Z,8.88
2023-05-09T16:10:39.095Z,8.25
2023-05-09T16:13:41.829Z,10.07
2023-05-09T16:16:44.426Z,7.47
2023-05-09T16:19:47.206Z,6.27
2023-05-09T16:22:49.866Z,5.53
2023-05-09T16:25:52.379Z,5.30
2023-05-09T16:28:54.940Z,7.22
2023-05-09T16:31:58.370Z,8.10
2023-05-09T16:35:00.994Z,6.13
2023-05-09T16:38:03.806Z,5.20
2023-05-09T16:41:06.470Z,10.23
2023-05-09T16:44:09.175Z,7.70
2023-05-09T16:47:11.839Z,6.10
2023-05-09T16:50:14.618Z,5.53
2023-05-09T16:53:19.087Z,5.80
2023-05-09T16:56:25.486Z,5.70
2023-05-09T16:59:28.116Z,5.47
2023-05-09T17:02:30.841Z,5.00
2023-05-09T17:05:33.796Z,6.60
2023-05-09T17:08:36.509Z,7.97
2023-05-09T17:11:39.130Z,5.55
2023-05-09T17:14:41.807Z,8.60
2023-05-09T17:17:44.493Z,5.80
2023-05-09T17:20:47.314Z,10.73
2023-05-09T17:23:49.952Z,7.13
2023-05-09T17:26:52.784Z,6.20
2023-05-09T17:29:55.479Z,5.10
2023-05-09T17:32:58.232Z,6.80
2023-05-09T17:36:00.902Z,7.40
2023-05-09T17:39:04.823Z,8.13
2023-05-09T17:42:07.948Z,6.38
2023-05-09T17:45:14.055Z,6.40
2023-05-09T17:48:16.903Z,6.60
2023-05-09T17:51:19.541Z,8.50
2023-05-09T17:54:22.150Z,8.45
2023-05-09T17:57:24.744Z,5.50
2023-05-09T18:00:27.360Z,7.82
2023-05-09T18:03:32.343Z,9.60
2023-05-09T18:06:35.154Z,11.63
2023-05-09T18:09:40.171Z,6.88
2023-05-09T18:12:45.239Z,8.43
2023-05-09T18:15:48.366Z,5.65
2023-05-09T18:18:50.997Z,6.77
2023-05-09T18:21:56.433Z,7.77
2023-05-09T18:24:59.249Z,6.88
2023-05-09T18:28:01.920Z,7.85
2023-05-09T18:31:06.384Z,6.35
2023-05-09T18:34:12.382Z,7.37
2023-05-09T18:37:15.232Z,6.73
2023-05-09T18:40:18.034Z,6.95
2023-05-09T18:43:23.449Z,10.00
2023-05-09T18:46:28.108Z,9.40
2023-05-09T18:49:30.799Z,8.73
2023-05-09T18:52:34.420Z,8.67
2023-05-09T18:55:37.213Z,6.63
2023-05-09T18:58:40.013Z,7.63
2023-05-09T19:01:44.132Z,6.03
2023-05-09T19:04:48.187Z,9.47
2023-05-09T19:07:51.836Z,8.10
2023-05-09T19:10:56.022Z,11.40
2023-05-09T19:14:00.098Z,7.57
2023-05-09T19:17:04.438Z,5.90
2023-05-09T19:20:08.551Z,6.17
2023-05-09T19:23:12.192Z,7.73
2023-05-09T19:26:18.226Z,6.57
2023-05-09T19:29:20.947Z,6.35
2023-05-09T19:32:23.633Z,6.72
2023-05-09T19:35:26.692Z,7.50
2023-05-09T19:38:30.799Z,10.50
2023-05-09T19:41:33.714Z,8.05
2023-05-09T19:44:36.299Z,7.70
2023-05-09T19:47:39.546Z,7.65
2023-05-09T19:50:43.154Z,9.57
2023-05-09T19:53:46.981Z,8.57
2023-05-09T19:56:50.807Z,7.80
2023-05-09T19:59:55.249Z,8.15
2023-05-09T20:02:57.961Z,6.97
2023-05-09T20:06:01.333Z,6.67
2023-05-09T20:09:04.806Z,8.07
2023-05-09T20:12:07.600Z,7.70
2023-05-09T20:15:10.509Z,8.32
2023-05-09T20:18:15.013Z,8.18
2023-05-09T20:21:17.964Z,9.83
2023-05-09T20:24:20.778Z,10.30
2023-05-09T20:27:23.727Z,11.40
2023-05-09T20:30:26.533Z,9.90
2023-05-09T20:33:29.588Z,9.60
2023-05-09T20:36:32.631Z,9.23
2023-05-09T20:39:35.567Z,8.30
2023-05-09T20:42:38.215Z,10.25
2023-05-09T20:45:41.050Z,10.25
2023-05-09T20:48:44.389Z,12.80
2023-05-09T20:51:47.060Z,9.93
2023-05-09T20:54:50.778Z,10.53
2023-05-09T20:57:54.640Z,9.38
2023-05-09T21:00:57.537Z,10.00
2023-05-09T21:04:00.354Z,12.35
2023-05-09T21:07:03.604Z,8.57
2023-05-09T21:10:06.820Z,10.07
2023-05-09T21:13:09.687Z,9.30
2023-05-09T21:16:12.293Z,11.90
2023-05-09T21:19:15.734Z,12.68
2023-05-09T21:22:18.487Z,9.93
2023-05-09T21:25:21.289Z,10.53
2023-05-09T21:28:24.110Z,10.68
2023-05-09T21:31:28.969Z,12.20
2023-05-09T21:34:31.616Z,10.15
2023-05-09T21:37:37.432Z,12.37
2023-05-09T21:40:40.891Z,13.13
2023-05-09T21:43:43.590Z,11.45
2023-05-09T21:46:46.506Z,11.55
2023-05-09T21:49:51.756Z,10.63
2023-05-09T21:52:56.338Z,9.40
2023-05-09T21:55:58.986Z,10.40
2023-05-09T21:59:01.569Z,12.02
2023-05-09T22:02:04.149Z,9.98
2023-05-09T22:05:06.927Z,12.43
2023-05-09T22:08:09.765Z,11.37
2023-05-09T22:11:14.116Z,15.93
2023-05-09T22:14:17.355Z,16.50
2023-05-09T22:17:20.089Z,14.40
2023-05-09T22:20:22.745Z,15.88
2023-05-09T22:23:25.488Z,15.07
2023-05-09T22:26:28.058Z,18.43
2023-05-09T22:29:34.228Z,14.82
2023-05-09T22:32:36.873Z,16.83
2023-05-09T22:35:39.724Z,17.90
2023-05-09T22:38:43.210Z,18.60
2023-05-09T22:41:45.822Z,18.20
2023-05-09T22:44:49.933Z,18.35
2023-05-09T22:47:52.585Z,18.23
2023-05-09T22:50:55.127Z,19.95
2023-05-09T22:53:57.726Z,17.43
2023-05-09T22:57:00.501Z,13.93
2023-05-09T23:00:03.300Z,14.15
2023-05-09T23:03:06.056Z,13.70
2023-05-09T23:06:08.654Z,13.82
2023-05-09T23:09:11.241Z,13.10
2023-05-09T23:12:13.920Z,11.03
2023-05-09T23:15:16.616Z,11.77
2023-05-09T23:18:21.166Z,12.63
2023-05-09T23:21:23.885Z,13.63
2023-05-09T23:24:26.582Z,11.67
2023-05-09T23:27:31.284Z,10.87
2023-05-09T23:30:33.919Z,11.43
2023-05-09T23:33:36.492Z,12.10
2023-05-09T23:36:39.491Z,10.23
2023-05-09T23:39:42.041Z,9.87
2023-05-09T23:42:44.584Z,10.20
2023-05-09T23:45:47.136Z,10.70
2023-05-09T23:48:49.748Z,10.15
2023-05-09T23:51:52.337Z,12.23
2023-05-09T23:54:54.906Z,9.40
2023-05-09T23:57:57.662Z,10.30
